Time;durP1;ratioP1;P1;durP2;ratioP2;P2;SDS_P1;SDS_P2;PMS_P1;PMS_P2;Temp;Humidity;BMP_temperature;BMP_pressure;BME280_temperature;BME280_humidity;BME280_pressure;Samples;Min_cycle;Max_cycle;Signal;HPM_P1;HPM_P2
2022/08/28 00:02:07;;;;;;;26.10;23.60;;;24.50;73.00;;;;;;4954265;29;20204;-46
2022/08/28 00:04:34;;;;;;;28.40;25.60;;;24.50;73.00;;;;;;4953844;29;20216;-46
2022/08/28 00:07:00;;;;;;;28.13;25.13;;;24.50;73.00;;;;;;4952635;29;20196;-45
2022/08/28 00:09:26;;;;;;;27.53;22.37;;;24.50;73.00;;;;;;4953743;29;20459;-46
2022/08/28 00:11:52;;;;;;;26.80;23.93;;;24.50;72.90;;;;;;4954483;29;20935;-46
2022/08/28 00:14:19;;;;;;;26.00;22.60;;;24.50;72.60;;;;;;4953671;28;20290;-46
2022/08/28 00:16:49;;;;;;;25.10;22.73;;;24.50;72.40;;;;;;4953879;29;20454;-45
2022/08/28 00:19:17;;;;;;;25.57;22.53;;;24.50;72.30;;;;;;4953678;29;20495;-46
2022/08/28 00:21:43;;;;;;;26.80;24.00;;;24.50;72.20;;;;;;4954020;29;20828;-45
2022/08/28 00:24:09;;;;;;;24.30;21.90;;;24.50;72.30;;;;;;4953585;29;20420;-46
2022/08/28 00:29:19;;;;;;;24.90;22.47;;;24.50;72.30;;;;;;4953656;29;20195;-46
2022/08/28 00:31:45;;;;;;;26.00;23.60;;;24.50;72.50;;;;;;4953841;29;20766;-46
2022/08/28 00:34:10;;;;;;;27.77;24.90;;;24.50;72.70;;;;;;4951652;29;20295;-47
2022/08/28 00:36:37;;;;;;;26.07;23.67;;;24.40;72.70;;;;;;4953673;29;20936;-45
2022/08/28 00:39:04;;;;;;;26.13;22.97;;;24.40;72.70;;;;;;4953953;29;20211;-46
2022/08/28 00:41:31;;;;;;;24.97;22.63;;;24.40;72.90;;;;;;4936160;29;20594;-46
2022/08/28 00:44:16;;;;;;;25.57;23.30;;;24.40;72.90;;;;;;4953837;29;20420;-45
2022/08/28 00:46:45;;;;;;;29.20;26.07;;;24.40;73.00;;;;;;4953452;29;20462;-45
2022/08/28 00:49:13;;;;;;;27.80;25.10;;;24.30;73.00;;;;;;4953050;29;20450;-47
2022/08/28 00:54:25;;;;;;;29.30;26.40;;;24.20;73.90;;;;;;4953508;29;21056;-46
2022/08/28 00:56:52;;;;;;;28.57;25.53;;;24.10;74.40;;;;;;4953220;29;20461;-45
2022/08/28 00:59:22;;;;;;;29.60;26.90;;;24.10;74.50;;;;;;4953217;29;20470;-47
2022/08/28 01:01:52;;;;;;;29.60;25.30;;;24.10;74.40;;;;;;4952218;29;20436;-46
2022/08/28 01:04:20;;;;;;;27.70;24.80;;;24.10;74.60;;;;;;4952633;29;20435;-46
2022/08/28 01:06:51;;;;;;;28.03;25.33;;;24.10;74.60;;;;;;4952615;29;20431;-45
2022/08/28 01:09:17;;;;;;;28.40;25.40;;;24.20;74.40;;;;;;4951967;28;20446;-46
2022/08/28 01:11:46;;;;;;;28.57;25.77;;;24.20;74.20;;;;;;4953304;29;20436;-45
2022/08/28 01:14:14;;;;;;;30.53;27.47;;;24.20;74.00;;;;;;4952545;28;20518;-46
2022/08/28 01:16:41;;;;;;;29.73;26.73;;;24.20;73.80;;;;;;4952630;29;20443;-49
2022/08/28 01:19:13;;;;;;;30.00;26.93;;;24.20;73.80;;;;;;4952941;29;20435;-46
2022/08/28 01:21:52;;;;;;;30.33;27.40;;;24.20;74.00;;;;;;4953236;29;20428;-48
2022/08/28 01:24:18;;;;;;;29.60;26.63;;;24.20;74.00;;;;;;4952631;29;20527;-45
2022/08/28 01:26:45;;;;;;;29.97;26.73;;;24.20;74.00;;;;;;4951113;29;20998;-50
2022/08/28 01:29:12;;;;;;;35.70;28.07;;;24.20;74.10;;;;;;4952245;29;20533;-46
2022/08/28 01:31:39;;;;;;;31.60;27.57;;;24.20;74.90;;;;;;4951606;28;20436;-50
2022/08/28 01:34:06;;;;;;;30.13;27.13;;;24.30;74.40;;;;;;4952895;29;20435;-47
2022/08/28 01:36:32;;;;;;;32.30;29.00;;;24.20;74.10;;;;;;4952237;29;20845;-45
2022/08/28 01:39:10;;;;;;;30.77;27.30;;;24.30;74.10;;;;;;4952443;29;20451;-49
2022/08/28 01:41:41;;;;;;;31.47;28.27;;;24.20;74.10;;;;;;4952923;29;20214;-50
2022/08/28 01:44:07;;;;;;;32.27;28.00;;;24.20;74.20;;;;;;4952380;29;20428;-47
2022/08/28 01:46:33;;;;;;;30.10;27.07;;;24.20;74.20;;;;;;4952227;29;20434;-49
2022/08/28 01:48:59;;;;;;;29.77;26.57;;;24.20;74.30;;;;;;4952632;29;20561;-46
2022/08/28 01:51:25;;;;;;;34.07;29.00;;;24.30;74.40;;;;;;4952152;29;20215;-47
2022/08/28 01:53:51;;;;;;;31.87;28.33;;;24.30;74.40;;;;;;4951289;29;20432;-45
2022/08/28 01:56:17;;;;;;;30.80;27.57;;;24.30;74.40;;;;;;4951840;29;20200;-48
2022/08/28 01:58:43;;;;;;;32.43;28.07;;;24.30;74.40;;;;;;4952855;29;20459;-49
2022/08/28 02:01:11;;;;;;;33.60;29.23;;;24.30;74.60;;;;;;4952329;29;20438;-46
2022/08/28 02:03:38;;;;;;;34.03;28.30;;;24.20;74.80;;;;;;4952457;28;20983;-47
2022/08/28 02:06:04;;;;;;;34.80;27.33;;;24.20;74.80;;;;;;4951809;29;20820;-46
2022/08/28 02:08:29;;;;;;;31.90;28.17;;;24.30;74.80;;;;;;4940086;29;20424;-49
2022/08/28 02:10:55;;;;;;;32.47;27.57;;;24.30;74.80;;;;;;4951981;29;20438;-46
2022/08/28 02:13:21;;;;;;;37.70;28.93;;;24.30;74.60;;;;;;4952673;29;20236;-45
2022/08/28 02:15:47;;;;;;;39.47;31.23;;;24.30;74.60;;;;;;4951256;28;20224;-49
2022/08/28 02:18:13;;;;;;;37.40;29.73;;;24.30;74.60;;;;;;4952560;29;20250;-46
2022/08/28 02:20:40;;;;;;;36.60;30.83;;;24.30;74.60;;;;;;4950605;28;20788;-49
2022/08/28 02:23:06;;;;;;;30.80;27.50;;;24.40;74.60;;;;;;4956392;29;20935;-46
2022/08/28 02:25:32;;;;;;;35.43;29.13;;;24.30;74.50;;;;;;4955177;29;20501;-48
2022/08/28 02:27:57;;;;;;;35.47;30.97;;;24.30;74.50;;;;;;4955997;29;20622;-46
2022/08/28 02:30:23;;;;;;;36.83;30.67;;;24.40;74.50;;;;;;4955537;29;20203;-46
2022/08/28 02:32:49;;;;;;;36.43;30.93;;;24.30;74.40;;;;;;4956302;29;20574;-49
2022/08/28 02:35:17;;;;;;;37.20;30.43;;;24.40;74.40;;;;;;4955198;29;20331;-47
2022/08/28 02:37:44;;;;;;;33.27;29.77;;;24.40;74.50;;;;;;4956000;29;20436;-49
2022/08/28 02:40:13;;;;;;;38.80;30.53;;;24.40;74.60;;;;;;4955516;29;20432;-47
2022/08/28 02:42:39;;;;;;;30.60;27.43;;;24.30;74.40;;;;;;4956016;29;20439;-46
2022/08/28 02:45:07;;;;;;;33.00;29.50;;;24.30;74.40;;;;;;4955060;29;20486;-46
2022/08/28 02:47:32;;;;;;;32.40;28.93;;;24.30;74.20;;;;;;4954242;29;20436;-46
2022/08/28 02:49:58;;;;;;;32.13;28.73;;;24.30;74.20;;;;;;4955231;29;20799;-50
2022/08/28 02:52:24;;;;;;;31.43;27.57;;;24.30;74.10;;;;;;4956015;29;20327;-49
2022/08/28 02:54:49;;;;;;;29.90;26.67;;;24.30;74.10;;;;;;4955580;29;20196;-46
2022/08/28 02:57:15;;;;;;;32.10;28.80;;;24.30;74.10;;;;;;4955474;29;20196;-46
2022/08/28 02:59:42;;;;;;;30.00;26.90;;;24.30;74.10;;;;;;4954775;29;20278;-46
2022/08/28 03:02:07;;;;;;;32.23;28.93;;;24.30;74.10;;;;;;4955506;29;20238;-45
2022/08/28 03:04:34;;;;;;;31.57;28.23;;;24.20;74.10;;;;;;4954955;29;20514;-50
2022/08/28 03:07:00;;;;;;;33.63;30.07;;;24.20;74.30;;;;;;4955280;29;20206;-48
2022/08/28 03:09:26;;;;;;;30.30;26.97;;;24.30;74.40;;;;;;4955037;29;20427;-49
2022/08/28 03:11:53;;;;;;;30.43;27.07;;;24.30;74.40;;;;;;4955564;29;20199;-49
2022/08/28 03:14:19;;;;;;;30.27;27.17;;;24.30;74.40;;;;;;4953092;28;20294;-48
2022/08/28 03:16:45;;;;;;;30.27;27.17;;;24.30;74.60;;;;;;4955130;29;20456;-46
2022/08/28 03:19:11;;;;;;;30.37;26.47;;;24.20;74.50;;;;;;4954472;29;20530;-46
2022/08/28 03:21:37;;;;;;;33.13;29.23;;;24.20;74.60;;;;;;4955421;29;20207;-46
2022/08/28 03:24:03;;;;;;;32.00;28.23;;;24.20;74.80;;;;;;4955307;29;20203;-47
2022/08/28 03:26:28;;;;;;;30.60;26.47;;;24.30;74.80;;;;;;4954162;29;21065;-50
2022/08/28 03:28:56;;;;;;;31.10;27.83;;;24.30;74.80;;;;;;4955000;29;20279;-45
2022/08/28 03:31:26;;;;;;;31.30;27.80;;;24.20;74.70;;;;;;4954761;29;20211;-46
2022/08/28 03:33:52;;;;;;;28.17;25.33;;;24.30;74.80;;;;;;4954157;28;20438;-46
2022/08/28 03:36:22;;;;;;;29.00;25.97;;;24.30;74.90;;;;;;4954277;29;20482;-45
2022/08/28 03:38:49;;;;;;;28.00;25.20;;;24.20;74.80;;;;;;4954982;29;20443;-46
2022/08/28 03:41:18;;;;;;;27.23;24.47;;;24.30;74.80;;;;;;4952660;29;20439;-45
2022/08/28 03:43:44;;;;;;;26.13;23.50;;;24.30;74.80;;;;;;4955130;29;20432;-47
2022/08/28 03:46:14;;;;;;;28.00;25.00;;;24.30;74.80;;;;;;4953840;29;20490;-47
2022/08/28 03:48:41;;;;;;;28.13;25.10;;;24.30;74.70;;;;;;4955058;29;20839;-46
2022/08/28 03:51:08;;;;;;;27.10;24.33;;;24.30;74.80;;;;;;4954175;29;20950;-47
2022/08/28 03:53:36;;;;;;;25.67;22.67;;;24.20;74.60;;;;;;4954682;29;20438;-46
2022/08/28 03:56:06;;;;;;;25.27;22.77;;;24.20;74.50;;;;;;4953724;29;20442;-45
2022/08/28 03:58:31;;;;;;;26.60;24.07;;;24.30;74.40;;;;;;4954412;29;20515;-45
2022/08/28 04:00:57;;;;;;;23.07;20.57;;;24.20;74.30;;;;;;4953950;29;20435;-48
2022/08/28 04:03:23;;;;;;;25.80;23.30;;;24.20;74.20;;;;;;4954499;29;20247;-46
2022/08/28 04:05:49;;;;;;;24.43;21.40;;;24.30;74.20;;;;;;4953742;29;20643;-46
2022/08/28 04:08:16;;;;;;;24.50;22.30;;;24.30;74.20;;;;;;4952646;29;20195;-46
2022/08/28 04:10:43;;;;;;;22.33;20.20;;;24.30;74.10;;;;;;4953627;29;20196;-46
2022/08/28 04:13:10;;;;;;;24.20;21.60;;;24.30;74.10;;;;;;4954123;29;20511;-45
2022/08/28 04:15:35;;;;;;;23.20;20.90;;;24.30;74.00;;;;;;4953575;28;20431;-46
2022/08/28 04:18:01;;;;;;;25.83;23.17;;;24.30;74.00;;;;;;4953831;29;20424;-46
2022/08/28 04:20:27;;;;;;;23.37;21.07;;;24.20;74.00;;;;;;4953607;29;20234;-46
2022/08/28 04:22:53;;;;;;;23.60;21.20;;;24.20;74.10;;;;;;4954100;29;20200;-46
2022/08/28 04:25:20;;;;;;;23.60;21.20;;;24.20;74.00;;;;;;4952979;29;20491;-46
2022/08/28 04:27:46;;;;;;;22.30;20.00;;;24.30;74.10;;;;;;4953920;29;20439;-47
2022/08/28 04:30:12;;;;;;;23.70;21.37;;;24.20;74.00;;;;;;4953185;29;20427;-46
2022/08/28 04:32:38;;;;;;;22.53;20.33;;;24.20;74.00;;;;;;4953903;29;20804;-46
2022/08/28 04:35:07;;;;;;;25.63;21.87;;;24.30;73.90;;;;;;4951207;29;20207;-50
2022/08/28 04:37:33;;;;;;;22.80;20.50;;;24.30;73.90;;;;;;4953744;29;20482;-45
2022/08/28 04:39:58;;;;;;;21.73;19.40;;;24.30;73.80;;;;;;4953124;29;20514;-45
2022/08/28 04:42:24;;;;;;;22.43;20.23;;;24.30;73.80;;;;;;4953455;29;20616;-46
2022/08/28 04:44:55;;;;;;;22.27;19.87;;;24.30;73.70;;;;;;4952789;28;20267;-47
2022/08/28 04:47:22;;;;;;;23.20;21.00;;;24.30;73.60;;;;;;4953557;29;20242;-46
2022/08/28 04:49:48;;;;;;;23.00;20.80;;;24.30;73.70;;;;;;4953089;29;20574;-47
2022/08/28 04:52:14;;;;;;;22.67;20.50;;;24.30;73.60;;;;;;4953357;29;20467;-46
2022/08/28 04:54:39;;;;;;;23.63;21.30;;;24.30;73.50;;;;;;4953091;29;20916;-46
2022/08/28 04:57:05;;;;;;;22.13;19.90;;;24.30;73.40;;;;;;4953316;29;20202;-45
2022/08/28 04:59:31;;;;;;;21.20;19.33;;;24.30;73.50;;;;;;4953026;29;20204;-49
2022/08/28 05:01:56;;;;;;;30.63;20.20;;;24.30;73.50;;;;;;4951851;29;20196;-46
2022/08/28 05:04:22;;;;;;;22.70;20.43;;;24.30;73.60;;;;;;4952853;29;20656;-45
2022/08/28 05:06:47;;;;;;;22.50;20.10;;;24.30;73.50;;;;;;4953045;29;20196;-46
2022/08/28 05:09:16;;;;;;;18.90;17.10;;;24.30;73.40;;;;;;4952337;29;20198;-46
2022/08/28 05:11:43;;;;;;;22.17;19.93;;;24.30;73.40;;;;;;4953005;29;20202;-45
2022/08/28 05:14:09;;;;;;;20.40;18.30;;;24.30;73.40;;;;;;4952502;28;20522;-46
2022/08/28 05:16:44;;;;;;;22.37;20.17;;;24.30;73.30;;;;;;4952446;29;20454;-46
2022/08/28 05:19:10;;;;;;;21.53;19.23;;;24.40;73.40;;;;;;4952253;29;20839;-46
2022/08/28 05:21:36;;;;;;;21.17;18.87;;;24.40;73.40;;;;;;4953169;29;20539;-46
2022/08/28 05:24:02;;;;;;;21.30;19.20;;;24.40;73.30;;;;;;4953051;29;20949;-45
2022/08/28 05:26:28;;;;;;;21.20;19.00;;;24.40;73.20;;;;;;4951951;29;20581;-48
2022/08/28 05:28:55;;;;;;;22.30;20.27;;;24.30;73.20;;;;;;4951042;29;20544;-46
2022/08/28 05:31:22;;;;;;;20.97;18.97;;;24.40;73.40;;;;;;4952637;29;20198;-46
2022/08/28 05:33:49;;;;;;;20.70;18.70;;;24.40;73.40;;;;;;4953324;29;20452;-46
2022/08/28 05:36:18;;;;;;;20.60;18.50;;;24.40;73.30;;;;;;4952341;29;20448;-46
2022/08/28 05:38:44;;;;;;;21.10;18.50;;;24.40;73.20;;;;;;4952722;29;20527;-45
2022/08/28 05:41:10;;;;;;;20.40;18.47;;;24.40;73.00;;;;;;4952355;29;20826;-45
2022/08/28 05:43:36;;;;;;;19.40;17.57;;;24.40;73.00;;;;;;4952707;29;20520;-46
2022/08/28 05:46:08;;;;;;;20.10;17.93;;;24.50;73.00;;;;;;4951682;29;20578;-45
2022/08/28 05:48:35;;;;;;;19.40;17.60;;;24.50;72.90;;;;;;4952647;29;20435;-45
2022/08/28 05:51:13;;;;;;;18.87;16.47;;;24.50;72.80;;;;;;4952229;29;20436;-46
2022/08/28 05:53:41;;;;;;;20.93;18.80;;;24.60;72.70;;;;;;4952353;29;20447;-46
2022/08/28 05:56:08;;;;;;;23.27;19.40;;;24.60;72.70;;;;;;4949702;29;20454;-46
2022/08/28 05:58:34;;;;;;;19.57;17.77;;;24.60;72.60;;;;;;4952710;29;20531;-45
2022/08/28 06:01:11;;;;;;;20.47;18.30;;;24.60;72.40;;;;;;4952056;29;20443;-46
2022/08/28 06:03:38;;;;;;;19.07;17.17;;;24.60;72.40;;;;;;4952373;29;20427;-45
2022/08/28 06:06:05;;;;;;;20.17;17.97;;;24.60;72.40;;;;;;4951608;29;21038;-45
2022/08/28 06:08:32;;;;;;;19.23;17.43;;;24.70;72.40;;;;;;4940079;29;20487;-45
2022/08/28 06:10:58;;;;;;;19.90;18.10;;;24.70;72.30;;;;;;4951910;29;20436;-45
2022/08/28 06:13:24;;;;;;;18.80;16.83;;;24.80;72.20;;;;;;4952534;29;20468;-47
2022/08/28 06:15:50;;;;;;;19.23;17.30;;;24.70;72.00;;;;;;4951427;28;20438;-47
2022/08/28 06:18:16;;;;;;;19.73;17.63;;;24.80;71.90;;;;;;4952534;29;20642;-46
2022/08/28 06:20:44;;;;;;;19.83;18.13;;;24.80;71.90;;;;;;4951879;29;20210;-45
2022/08/28 06:23:12;;;;;;;18.13;16.20;;;24.80;71.80;;;;;;4950874;29;20491;-46
2022/08/28 06:25:47;;;;;;;19.70;17.30;;;24.80;71.70;;;;;;4951131;29;20577;-45
2022/08/28 06:28:15;;;;;;;19.17;17.37;;;24.80;71.60;;;;;;4952316;29;20843;-46
2022/08/28 06:30:42;;;;;;;19.03;17.13;;;24.80;71.50;;;;;;4951928;29;20448;-45
2022/08/28 06:33:09;;;;;;;17.97;16.30;;;24.80;71.20;;;;;;4952233;29;20487;-46
2022/08/28 06:35:40;;;;;;;17.20;15.60;;;24.90;71.10;;;;;;4951336;29;20849;-45
2022/08/28 06:38:06;;;;;;;17.07;15.33;;;24.90;71.10;;;;;;4952392;29;20796;-49
2022/08/28 06:40:38;;;;;;;16.80;15.13;;;24.90;70.90;;;;;;4951651;29;20551;-45
2022/08/28 06:43:03;;;;;;;17.43;15.57;;;25.00;70.70;;;;;;4952017;29;20431;-45
2022/08/28 06:45:30;;;;;;;17.67;15.90;;;25.00;70.80;;;;;;4951245;29;20502;-45
2022/08/28 06:47:55;;;;;;;16.77;15.27;;;25.00;70.50;;;;;;4952272;29;20245;-45
2022/08/28 06:50:21;;;;;;;17.87;16.07;;;25.10;70.10;;;;;;4950066;29;20934;-46
2022/08/28 06:52:47;;;;;;;14.83;13.33;;;25.10;69.70;;;;;;4951919;29;20196;-46
2022/08/28 06:55:12;;;;;;;14.03;12.57;;;25.10;69.70;;;;;;4951140;29;20211;-45
2022/08/28 06:57:38;;;;;;;15.23;13.57;;;25.10;69.50;;;;;;4952201;29;20392;-47
2022/08/28 07:00:04;;;;;;;14.53;13.13;;;25.10;69.20;;;;;;4951587;29;20198;-45
2022/08/28 07:02:30;;;;;;;16.67;13.60;;;25.20;69.20;;;;;;4951967;29;20287;-46
2022/08/28 07:04:55;;;;;;;12.50;11.30;;;25.10;68.40;;;;;;4951062;29;20573;-46
2022/08/28 07:07:21;;;;;;;14.97;13.57;;;25.20;68.60;;;;;;4953528;28;20192;-46
2022/08/28 07:09:47;;;;;;;14.53;12.67;;;25.20;68.10;;;;;;4954922;29;20192;-45
2022/08/28 07:12:17;;;;;;;14.13;12.57;;;25.30;68.10;;;;;;4955413;29;20625;-46
2022/08/28 07:14:43;;;;;;;12.97;11.80;;;25.20;67.70;;;;;;4954630;28;20439;-45
2022/08/28 07:17:10;;;;;;;13.63;12.03;;;25.30;67.50;;;;;;4936481;29;20502;-45
2022/08/28 07:19:36;;;;;;;12.23;11.00;;;25.20;67.40;;;;;;4954838;29;20443;-46
2022/08/28 07:22:02;;;;;;;12.33;11.13;;;25.20;66.80;;;;;;4955565;29;20467;-45
2022/08/28 07:24:28;;;;;;;15.73;11.50;;;25.20;65.10;;;;;;4954504;29;20474;-45
2022/08/28 07:26:54;;;;;;;12.43;11.33;;;25.20;65.60;;;;;;4954941;29;20203;-46
2022/08/28 07:29:20;;;;;;;13.73;10.30;;;25.30;65.90;;;;;;4954799;29;20443;-47
2022/08/28 07:31:50;;;;;;;12.30;10.90;;;25.30;65.30;;;;;;4955362;29;20794;-46
2022/08/28 07:34:19;;;;;;;12.47;10.90;;;25.20;64.90;;;;;;4954695;29;20199;-45
2022/08/28 07:36:45;;;;;;;12.37;11.17;;;25.30;64.40;;;;;;4954951;29;20447;-46
2022/08/28 07:39:13;;;;;;;11.80;10.63;;;25.40;64.00;;;;;;4954506;29;20440;-46
2022/08/28 07:41:41;;;;;;;12.20;11.00;;;25.50;63.80;;;;;;4955085;29;20434;-45
2022/08/28 07:46:54;;;;;;;10.90;9.90;;;25.60;63.60;;;;;;4955027;29;21683;-46
2022/08/28 07:49:21;;;;;;;11.13;9.97;;;25.60;63.60;;;;;;4954420;29;20442;-48
2022/08/28 07:51:46;;;;;;;11.60;10.50;;;25.70;63.60;;;;;;4954840;29;20771;-46
2022/08/28 07:54:12;;;;;;;13.27;9.97;;;25.70;63.40;;;;;;4954119;29;20442;-46
2022/08/28 07:56:41;;;;;;;11.73;10.53;;;25.80;63.50;;;;;;4954462;29;20198;-46
2022/08/28 07:59:09;;;;;;;11.17;9.60;;;25.90;63.50;;;;;;4954677;29;20275;-46
2022/08/28 08:01:40;;;;;;;10.90;9.80;;;25.90;63.90;;;;;;4954421;29;20502;-45
2022/08/28 08:04:07;;;;;;;10.60;9.60;;;26.00;64.40;;;;;;4954394;29;20439;-50
2022/08/28 08:06:34;;;;;;;11.37;8.90;;;26.10;63.10;;;;;;4953595;29;20476;-48
2022/08/28 08:09:00;;;;;;;10.90;9.80;;;26.10;62.40;;;;;;4954694;29;20833;-48
2022/08/28 08:11:25;;;;;;;11.30;10.10;;;26.20;62.60;;;;;;4952347;29;20436;-49
2022/08/28 08:13:53;;;;;;;11.40;10.40;;;26.30;62.40;;;;;;4954136;28;20250;-45
2022/08/28 08:16:22;;;;;;;13.57;11.07;;;26.30;62.40;;;;;;4953490;29;20200;-50
2022/08/28 08:18:48;;;;;;;12.40;10.43;;;26.20;61.30;;;;;;4954008;28;20431;-45
2022/08/28 08:21:18;;;;;;;10.87;9.80;;;26.10;61.60;;;;;;4953677;29;20432;-49
2022/08/28 08:23:44;;;;;;;9.60;8.60;;;26.20;61.10;;;;;;4954082;29;20443;-50
2022/08/28 08:26:15;;;;;;;10.60;9.50;;;26.20;60.90;;;;;;4953642;29;20491;-47
2022/08/28 08:28:41;;;;;;;10.13;9.23;;;26.30;60.50;;;;;;4954331;29;20524;-50
2022/08/28 08:31:20;;;;;;;11.03;9.83;;;26.30;59.90;;;;;;4953525;29;20958;-46
2022/08/28 08:33:50;;;;;;;10.53;9.53;;;26.40;60.30;;;;;;4953766;29;20518;-50
2022/08/28 08:36:17;;;;;;;11.67;10.47;;;26.50;59.60;;;;;;4953096;29;20526;-46
2022/08/28 08:38:44;;;;;;;10.63;9.63;;;26.60;60.80;;;;;;4952419;29;20451;-49
2022/08/28 08:41:33;;;;;;;11.57;9.40;;;26.70;59.70;;;;;;4953514;29;20502;-46
2022/08/28 08:44:20;;;;;;;10.70;9.60;;;26.70;60.30;;;;;;4953596;29;20433;-50
2022/08/28 08:47:04;;;;;;;11.27;10.20;;;26.80;60.00;;;;;;4953621;29;20529;-45
2022/08/28 08:49:37;;;;;;;10.37;9.33;;;26.90;58.90;;;;;;4953505;29;20519;-48
2022/08/28 08:52:17;;;;;;;11.60;10.00;;;26.90;59.60;;;;;;4953826;29;20954;-49
2022/08/28 08:54:58;;;;;;;12.37;10.67;;;27.10;58.90;;;;;;4952502;29;20440;-50
2022/08/28 08:57:24;;;;;;;10.87;9.40;;;26.80;58.40;;;;;;4953853;29;20435;-50
2022/08/28 08:59:50;;;;;;;11.37;9.37;;;26.80;58.30;;;;;;4953050;29;20442;-49
2022/08/28 09:02:31;;;;;;;10.53;9.53;;;26.70;58.20;;;;;;4953477;29;20207;-47
2022/08/28 09:05:03;;;;;;;9.80;8.60;;;26.30;60.50;;;;;;4950642;29;20466;-46
2022/08/28 09:07:40;;;;;;;11.50;10.40;;;26.50;60.10;;;;;;4953549;29;20462;-49
2022/08/28 09:10:11;;;;;;;10.40;9.50;;;26.80;59.30;;;;;;4933753;29;20512;-46
2022/08/28 09:12:55;;;;;;;9.40;8.57;;;26.90;58.30;;;;;;4934107;29;20479;-45
2022/08/28 09:15:37;;;;;;;10.80;9.80;;;26.60;59.50;;;;;;4945215;28;20481;-45
2022/08/28 09:18:27;;;;;;;11.00;9.87;;;26.90;59.00;;;;;;4953334;29;20511;-49
2022/08/28 09:20:55;;;;;;;9.60;8.70;;;27.20;57.90;;;;;;4952709;29;20457;-47
2022/08/28 09:23:22;;;;;;;8.67;7.90;;;27.50;56.90;;;;;;4953411;29;20431;-46
2022/08/28 09:26:04;;;;;;;9.40;8.40;;;27.70;56.10;;;;;;4952301;29;20909;-50
2022/08/28 09:28:37;;;;;;;8.53;7.83;;;27.90;55.70;;;;;;4952973;29;20431;-48
2022/08/28 09:31:06;;;;;;;10.60;9.37;;;27.90;56.00;;;;;;4950323;28;21022;-49
2022/08/28 09:33:33;;;;;;;10.10;9.13;;;27.90;55.60;;;;;;4953163;29;20939;-46
2022/08/28 09:36:30;;;;;;;10.90;9.13;;;28.00;55.90;;;;;;4952027;29;20432;-46
2022/08/28 09:39:29;;;;;;;8.93;8.10;;;28.00;55.70;;;;;;4952984;29;20435;-47
2022/08/28 09:45:02;;;;;;;8.27;7.60;;;28.10;55.50;;;;;;4950795;28;20458;-48
2022/08/28 09:47:47;;;;;;;9.50;8.20;;;28.10;54.90;;;;;;4952802;29;20977;-46
2022/08/28 09:50:43;;;;;;;13.10;10.00;;;28.10;55.20;;;;;;4952297;29;20443;-49
2022/08/28 09:53:08;;;;;;;10.33;9.30;;;28.10;55.50;;;;;;4951326;29;20440;-50
2022/08/28 09:56:03;;;;;;;10.50;9.40;;;28.00;55.40;;;;;;4951794;29;20493;-47
2022/08/28 09:58:36;;;;;;;10.23;9.33;;;28.10;55.50;;;;;;4938242;29;20214;-46
2022/08/28 10:01:08;;;;;;;10.03;9.23;;;28.20;55.80;;;;;;4952143;29;20938;-45
2022/08/28 10:03:52;;;;;;;9.23;8.33;;;28.40;55.00;;;;;;4952849;29;20447;-46
2022/08/28 10:06:28;;;;;;;10.23;9.23;;;28.50;55.10;;;;;;4951411;29;20859;-46
2022/08/28 10:09:05;;;;;;;12.77;8.77;;;28.60;54.50;;;;;;4952535;29;20466;-47
2022/08/28 10:11:58;;;;;;;9.70;8.33;;;28.60;54.40;;;;;;4951986;29;20446;-46
2022/08/28 10:14:57;;;;;;;9.90;8.93;;;28.70;54.30;;;;;;4951435;28;21042;-46
2022/08/28 10:17:42;;;;;;;10.40;9.30;;;28.70;54.10;;;;;;4952240;29;21006;-46
2022/08/28 10:20:22;;;;;;;9.77;8.87;;;28.60;54.00;;;;;;4952230;29;20487;-46
2022/08/28 10:23:08;;;;;;;8.90;8.20;;;28.60;54.30;;;;;;4952578;29;20921;-46
2022/08/28 10:25:55;;;;;;;9.00;7.97;;;28.80;54.50;;;;;;4949912;29;20494;-46
2022/08/28 10:28:30;;;;;;;9.30;8.50;;;29.00;52.90;;;;;;4952694;29;20436;-45
2022/08/28 10:31:16;;;;;;;9.20;8.30;;;29.20;52.00;;;;;;4951888;29;20445;-45
2022/08/28 10:33:44;;;;;;;9.13;8.23;;;29.30;52.10;;;;;;4952657;29;20427;-45
2022/08/28 10:36:25;;;;;;;9.90;8.90;;;29.40;52.60;;;;;;4951763;29;20447;-46
2022/08/28 10:39:12;;;;;;;10.03;8.30;;;29.50;51.50;;;;;;4952225;29;20483;-50
2022/08/28 10:41:48;;;;;;;9.07;8.27;;;29.50;51.60;;;;;;4952906;28;20446;-46
2022/08/28 10:44:23;;;;;;;10.80;8.60;;;29.60;51.20;;;;;;4955298;29;20435;-46
2022/08/28 10:46:53;;;;;;;13.00;8.73;;;29.70;50.90;;;;;;4956261;29;20478;-47
2022/08/28 10:49:36;;;;;;;9.30;8.30;;;29.70;50.80;;;;;;4955438;29;20495;-49
2022/08/28 10:52:15;;;;;;;9.83;8.00;;;29.90;50.40;;;;;;4954367;29;20854;-50
2022/08/28 10:54:53;;;;;;;7.57;6.97;;;30.10;50.20;;;;;;4955113;29;20518;-49
2022/08/28 10:57:43;;;;;;;8.70;7.37;;;30.30;50.70;;;;;;4956163;29;20778;-46
2022/08/28 11:00:13;;;;;;;7.07;6.47;;;30.50;49.50;;;;;;4955334;29;21050;-45
2022/08/28 11:02:43;;;;;;;9.00;7.53;;;30.80;48.20;;;;;;4954615;28;20487;-46
2022/08/28 11:05:09;;;;;;;8.53;7.30;;;31.00;47.30;;;;;;4954681;29;20478;-49
2022/08/28 11:07:56;;;;;;;8.90;6.80;;;31.30;46.60;;;;;;4955687;29;20431;-46
2022/08/28 11:10:37;;;;;;;10.70;7.57;;;31.50;46.10;;;;;;4944972;29;20427;-46
2022/08/28 11:13:05;;;;;;;7.77;6.63;;;31.40;46.00;;;;;;4955402;29;20570;-46
2022/08/28 11:15:30;;;;;;;8.27;7.07;;;31.40;46.40;;;;;;4937172;29;20782;-46
2022/08/28 11:18:32;;;;;;;7.07;6.33;;;31.60;45.80;;;;;;4955587;29;20450;-47
2022/08/28 11:21:20;;;;;;;7.50;6.80;;;31.60;47.20;;;;;;4954173;29;20191;-46
2022/08/28 11:24:04;;;;;;;7.53;6.80;;;31.70;47.40;;;;;;4955591;29;20431;-48
2022/08/28 11:26:39;;;;;;;8.03;7.33;;;31.80;47.20;;;;;;4954483;29;20492;-47
2022/08/28 11:29:04;;;;;;;8.73;7.90;;;31.70;47.10;;;;;;4955356;29;20983;-48
2022/08/28 11:31:34;;;;;;;7.27;6.63;;;31.70;46.50;;;;;;4954688;29;20514;-49
2022/08/28 11:34:01;;;;;;;8.30;7.50;;;31.60;45.30;;;;;;4955209;29;20239;-47
2022/08/28 11:36:28;;;;;;;6.37;5.77;;;31.50;46.20;;;;;;4954220;29;20515;-46
2022/08/28 11:38:54;;;;;;;7.93;7.30;;;31.50;45.90;;;;;;4955293;29;20436;-49
2022/08/28 11:41:30;;;;;;;8.33;7.63;;;31.40;46.20;;;;;;4954688;29;20454;-48
2022/08/28 11:44:01;;;;;;;8.33;7.67;;;31.40;46.90;;;;;;4955021;29;20210;-46
2022/08/28 11:46:31;;;;;;;7.43;6.83;;;31.30;46.40;;;;;;4952732;29;20541;-48
2022/08/28 11:49:03;;;;;;;7.43;6.80;;;31.30;46.40;;;;;;4955023;29;20874;-50
2022/08/28 11:51:38;;;;;;;7.13;6.47;;;31.20;47.00;;;;;;4954258;29;20566;-50
2022/08/28 11:54:18;;;;;;;8.20;7.50;;;31.10;47.60;;;;;;4953708;28;20428;-48
2022/08/28 11:57:01;;;;;;;7.00;6.30;;;31.00;48.00;;;;;;4954763;29;20954;-46
2022/08/28 11:59:48;;;;;;;8.50;6.30;;;31.00;47.80;;;;;;4954583;29;20502;-47
2022/08/28 12:02:58;;;;;;;7.07;6.57;;;31.00;47.00;;;;;;4954652;29;20439;-48
2022/08/28 12:05:29;;;;;;;7.60;6.97;;;31.00;46.90;;;;;;4894321;29;20497;-47
2022/08/28 12:07:56;;;;;;;6.73;6.23;;;31.00;47.90;;;;;;4895274;29;20461;-47
2022/08/28 12:10:21;;;;;;;7.13;6.40;;;31.00;46.90;;;;;;4927301;29;20462;-51
2022/08/28 12:12:48;;;;;;;7.60;7.00;;;31.20;46.50;;;;;;4952566;29;20471;-47
2022/08/28 12:15:26;;;;;;;8.97;7.17;;;31.30;46.30;;;;;;4953544;28;20573;-46
2022/08/28 12:17:55;;;;;;;10.10;6.47;;;31.50;45.00;;;;;;4954580;29;20442;-47
2022/08/28 12:20:54;;;;;;;8.03;7.33;;;31.60;43.50;;;;;;4953947;29;20439;-48
2022/08/28 12:23:30;;;;;;;10.67;6.43;;;31.90;45.50;;;;;;4954340;29;20428;-46
2022/08/28 12:26:14;;;;;;;6.50;5.97;;;31.90;46.00;;;;;;4953360;29;20491;-49
2022/08/28 12:28:51;;;;;;;6.40;5.90;;;32.10;45.20;;;;;;4954193;29;21007;-47
2022/08/28 12:34:44;;;;;;;6.80;5.93;;;32.40;44.10;;;;;;4953617;29;20446;-48
2022/08/28 12:37:28;;;;;;;7.47;6.83;;;32.40;42.50;;;;;;4954075;29;20439;-47
2022/08/28 12:39:57;;;;;;;7.10;6.43;;;32.40;43.10;;;;;;4951752;29;20474;-46
2022/08/28 12:42:29;;;;;;;6.87;6.27;;;32.20;43.70;;;;;;4953666;29;20424;-48
2022/08/28 12:45:04;;;;;;;6.93;5.30;;;32.50;43.40;;;;;;4953034;29;20583;-47
2022/08/28 12:47:30;;;;;;;6.73;5.53;;;32.60;41.70;;;;;;4954033;29;20431;-47
2022/08/28 12:49:55;;;;;;;6.40;5.80;;;32.80;41.90;;;;;;4952918;29;20455;-48
2022/08/28 12:52:24;;;;;;;6.47;5.87;;;32.80;42.00;;;;;;4953908;29;20478;-46
2022/08/28 12:54:54;;;;;;;8.13;5.97;;;32.80;42.40;;;;;;4952732;29;20204;-48
2022/08/28 12:57:22;;;;;;;6.40;5.90;;;32.90;42.60;;;;;;4953481;29;20427;-48
2022/08/28 12:59:50;;;;;;;5.70;5.30;;;32.80;42.00;;;;;;4953328;29;20427;-47
2022/08/28 13:02:29;;;;;;;6.17;5.57;;;32.90;41.60;;;;;;4953710;29;20431;-46
2022/08/28 13:05:03;;;;;;;6.93;6.07;;;32.90;41.90;;;;;;4952335;28;20533;-48